createdAt,value
2018-04-07T00:00:27.825Z,0
2018-04-07T00:01:27.611Z,0
2018-04-07T00:02:28.006Z,0
2018-04-07T00:03:27.510Z,0
2018-04-07T00:04:27.679Z,0
2018-04-07T00:05:27.549Z,0
2018-04-07T00:06:28.157Z,0
2018-04-07T00:07:28.294Z,0
2018-04-07T00:08:28.488Z,0
2018-04-07T00:09:28.891Z,0
2018-04-07T00:10:28.927Z,0
2018-04-07T00:11:28.776Z,0
2018-04-07T00:12:29.060Z,0
2018-04-07T00:13:29.274Z,0
2018-04-07T00:14:29.779Z,0
2018-04-07T00:15:29.847Z,0
2018-04-07T00:16:29.544Z,0
2018-04-07T00:17:29.669Z,0
2018-04-07T00:18:30.120Z,0
2018-04-07T00:19:30.363Z,0
2018-04-07T00:20:31.286Z,0
2018-04-07T00:21:31.147Z,0
2018-04-07T00:22:33.316Z,0
2018-04-07T00:23:31.993Z,0
2018-04-07T00:24:32.208Z,0
2018-04-07T00:25:32.304Z,0
2018-04-07T00:26:32.708Z,0
2018-04-07T00:27:32.869Z,0
2018-04-07T00:28:33.420Z,0
2018-04-07T00:29:34.146Z,0
2018-04-07T00:30:33.196Z,0
2018-04-07T00:31:33.571Z,0
2018-04-07T00:32:33.664Z,0
2018-04-07T00:33:33.662Z,0
2018-04-07T00:34:33.580Z,0
2018-04-07T00:35:34.100Z,0
2018-04-07T00:36:34.074Z,0
2018-04-07T00:37:34.464Z,0
2018-04-07T00:38:34.693Z,0
2018-04-07T00:39:35.989Z,0
2018-04-07T00:40:35.864Z,0
2018-04-07T00:41:35.699Z,0
2018-04-07T00:42:36.135Z,0
2018-04-07T00:43:36.388Z,0
2018-04-07T00:44:36.161Z,0
2018-04-07T00:45:36.154Z,0
2018-04-07T00:46:36.481Z,0
2018-04-07T00:47:35.988Z,0
2018-04-07T00:48:36.506Z,0
2018-04-07T00:49:36.326Z,0
2018-04-07T00:50:36.524Z,0
2018-04-07T00:51:37.025Z,0
2018-04-07T00:52:36.808Z,0
2018-04-07T00:53:36.936Z,0
2018-04-07T00:54:37.255Z,0
2018-04-07T00:55:37.683Z,0
2018-04-07T00:56:37.890Z,0
2018-04-07T00:57:37.749Z,0
2018-04-07T00:58:38.049Z,0
2018-04-07T00:59:38.446Z,0
2018-04-07T01:00:38.769Z,0
2018-04-07T01:01:38.580Z,0
2018-04-07T01:02:38.461Z,0
2018-04-07T01:03:39.125Z,0
2018-04-07T01:04:38.819Z,0
2018-04-07T01:05:39.655Z,0
2018-04-07T01:06:39.613Z,0
2018-04-07T01:07:40.353Z,0
2018-04-07T01:08:40.300Z,0
2018-04-07T01:09:39.760Z,0
2018-04-07T01:10:39.910Z,0
2018-04-07T01:11:39.889Z,0
2018-04-07T01:12:41.281Z,0
2018-04-07T01:13:40.959Z,0
2018-04-07T01:14:39.730Z,0
2018-04-07T01:15:40.176Z,0
2018-04-07T01:16:40.651Z,0
2018-04-07T01:17:41.442Z,0
2018-04-07T01:18:41.543Z,0
2018-04-07T01:19:40.957Z,0
2018-04-07T01:20:41.339Z,0
2018-04-07T01:21:41.250Z,0
2018-04-07T01:22:41.939Z,0
2018-04-07T01:23:41.936Z,0
2018-04-07T01:24:41.913Z,0
2018-04-07T01:25:41.884Z,0
2018-04-07T01:26:42.003Z,0
2018-04-07T01:27:42.428Z,0
2018-04-07T01:28:42.808Z,0
2018-04-07T01:29:42.228Z,0
2018-04-07T01:30:42.438Z,0
2018-04-07T01:31:42.135Z,0
2018-04-07T01:32:43.148Z,0
2018-04-07T01:33:42.495Z,0
2018-04-07T01:34:42.850Z,0
2018-04-07T01:35:43.073Z,0
2018-04-07T01:36:43.219Z,0
2018-04-07T01:37:43.171Z,0
2018-04-07T01:38:42.993Z,0
2018-04-07T01:39:43.372Z,0
2018-04-07T01:40:42.964Z,0
2018-04-07T01:41:43.179Z,0
2018-04-07T01:42:43.015Z,0
2018-04-07T01:43:43.016Z,0
2018-04-07T01:44:43.568Z,0
2018-04-07T01:45:43.578Z,0
2018-04-07T01:46:43.894Z,0
2018-04-07T01:47:43.270Z,0
2018-04-07T01:48:43.939Z,0
2018-04-07T01:49:43.683Z,0
2018-04-07T01:50:44.474Z,0
2018-04-07T01:51:44.520Z,0
2018-04-07T01:52:44.404Z,0
2018-04-07T01:53:44.007Z,0
2018-04-07T01:54:44.303Z,0
2018-04-07T01:55:44.353Z,0
2018-04-07T01:56:44.598Z,0
2018-04-07T01:57:44.328Z,0
2018-04-07T01:58:44.368Z,0
2018-04-07T01:59:44.971Z,0
2018-04-07T02:00:45.229Z,0
2018-04-07T02:01:45.283Z,0
2018-04-07T02:02:45.350Z,0
2018-04-07T02:03:45.057Z,0
2018-04-07T02:04:45.338Z,0
2018-04-07T02:05:45.105Z,0
2018-04-07T02:06:45.713Z,0
2018-04-07T02:07:45.469Z,0
2018-04-07T02:08:45.514Z,0
2018-04-07T02:09:46.077Z,0
2018-04-07T02:10:45.613Z,0
2018-04-07T02:11:46.495Z,0
2018-04-07T02:12:46.220Z,0
2018-04-07T02:13:46.271Z,0
2018-04-07T02:14:46.011Z,0
2018-04-07T02:15:46.004Z,0
2018-04-07T02:16:46.317Z,0
2018-04-07T02:17:46.608Z,0
2018-04-07T02:18:46.621Z,0
2018-04-07T02:19:46.364Z,0
2018-04-07T02:20:46.143Z,0
2018-04-07T02:21:46.681Z,0
2018-04-07T02:22:46.922Z,0
2018-04-07T02:23:46.573Z,0
2018-04-07T02:24:46.577Z,0
2018-04-07T02:25:46.529Z,0
2018-04-07T02:26:46.009Z,0
2018-04-07T02:27:46.591Z,0
2018-04-07T02:28:47.151Z,0
2018-04-07T02:29:47.175Z,0
2018-04-07T02:30:46.906Z,0
2018-04-07T02:31:46.676Z,0
2018-04-07T02:32:46.960Z,0
2018-04-07T02:33:46.990Z,0
2018-04-07T02:34:46.815Z,0
2018-04-07T02:35:47.454Z,0
2018-04-07T02:36:47.161Z,0
2018-04-07T02:37:47.758Z,0
2018-04-07T02:38:47.542Z,0
2018-04-07T02:39:47.543Z,0
2018-04-07T02:40:47.819Z,0
2018-04-07T02:41:47.319Z,0
2018-04-07T02:42:47.884Z,0
2018-04-07T02:43:47.225Z,0
2018-04-07T02:44:47.429Z,0
2018-04-07T02:45:48.027Z,0
2018-04-07T02:46:48.314Z,0
2018-04-07T02:47:48.308Z,0
2018-04-07T02:48:47.813Z,0
2018-04-07T02:49:48.089Z,0
2018-04-07T02:50:48.396Z,0
2018-04-07T02:51:48.414Z,0
2018-04-07T02:52:48.159Z,0
2018-04-07T02:53:48.215Z,0
2018-04-07T02:54:48.018Z,0
2018-04-07T02:55:48.876Z,0
2018-04-07T02:56:48.861Z,0
2018-04-07T02:57:49.141Z,0
2018-04-07T02:58:49.163Z,0
2018-04-07T02:59:48.915Z,0
2018-04-07T03:00:48.829Z,0
2018-04-07T03:01:49.228Z,0
2018-04-07T03:02:49.261Z,0
2018-04-07T03:03:49.410Z,0
2018-04-07T03:04:48.789Z,0
2018-04-07T03:05:49.241Z,0
2018-04-07T03:06:49.694Z,0
2018-04-07T03:07:49.546Z,0
2018-04-07T03:08:49.826Z,0
2018-04-07T03:09:49.983Z,0
2018-04-07T03:10:50.351Z,0
2018-04-07T03:11:50.545Z,0
2018-04-07T03:12:50.928Z,0
2018-04-07T03:13:51.344Z,0
2018-04-07T03:14:51.744Z,0
2018-04-07T03:15:50.874Z,0
2018-04-07T03:16:51.438Z,0
2018-04-07T03:17:51.586Z,0
2018-04-07T03:18:51.970Z,0
2018-04-07T03:19:51.926Z,0
2018-04-07T03:20:52.552Z,0
2018-04-07T03:21:52.107Z,0
2018-04-07T03:22:52.533Z,0
2018-04-07T03:23:52.537Z,0
2018-04-07T03:24:52.553Z,0
2018-04-07T03:25:51.802Z,0
2018-04-07T03:26:52.348Z,0
2018-04-07T03:27:53.343Z,0
2018-04-07T03:28:53.534Z,0
2018-04-07T03:29:53.720Z,0
2018-04-07T03:30:54.130Z,0
2018-04-07T03:31:54.542Z,0
2018-04-07T03:32:54.643Z,0
2018-04-07T03:33:54.792Z,0
2018-04-07T03:34:54.961Z,0
2018-04-07T03:35:55.634Z,0
2018-04-07T03:36:55.799Z,0
2018-04-07T03:37:55.917Z,0
2018-04-07T03:38:56.297Z,0
2018-04-07T03:39:56.473Z,0
2018-04-07T03:40:56.989Z,0
2018-04-07T03:41:57.096Z,0
2018-04-07T03:42:56.925Z,0
2018-04-07T03:43:56.976Z,0
2018-04-07T03:44:56.845Z,0
2018-04-07T03:45:57.505Z,0
2018-04-07T03:46:57.743Z,0
2018-04-07T03:47:57.772Z,0
2018-04-07T03:48:57.003Z,0
2018-04-07T03:49:57.527Z,0
2018-04-07T03:50:57.687Z,0
2018-04-07T03:51:58.354Z,0
2018-04-07T03:52:57.885Z,0
2018-04-07T03:53:58.303Z,0
2018-04-07T03:54:58.748Z,0
2018-04-07T03:55:59.271Z,0
2018-04-07T03:56:59.215Z,0
2018-04-07T03:57:59.721Z,0
2018-04-07T03:59:00.056Z,4
2018-04-07T04:00:00.457Z,0
2018-04-07T04:01:00.350Z,0
2018-04-07T04:02:00.399Z,4
2018-04-07T04:03:00.609Z,0
2018-04-07T04:04:00.894Z,4
2018-04-07T04:05:00.471Z,4
2018-04-07T04:06:00.793Z,4
2018-04-07T04:07:00.876Z,4
2018-04-07T04:08:01.126Z,4
2018-04-07T04:09:00.814Z,8
2018-04-07T04:10:00.955Z,8
2018-04-07T04:11:01.310Z,8
2018-04-07T04:12:00.903Z,8
2018-04-07T04:13:00.364Z,12
2018-04-07T04:14:00.648Z,16
2018-04-07T04:15:00.806Z,16
2018-04-07T04:16:01.348Z,20
2018-04-07T04:17:00.575Z,20
2018-04-07T04:18:01.172Z,24
2018-04-07T04:19:01.164Z,28
2018-04-07T04:20:01.572Z,28
2018-04-07T04:21:01.314Z,36
2018-04-07T04:22:01.353Z,40
2018-04-07T04:23:01.591Z,44
2018-04-07T04:24:01.147Z,52
2018-04-07T04:25:01.824Z,56
2018-04-07T04:26:01.680Z,64
2018-04-07T04:27:02.029Z,68
2018-04-07T04:28:01.751Z,72
2018-04-07T04:29:01.762Z,80
2018-04-07T04:30:01.546Z,88
2018-04-07T04:31:01.583Z,96
2018-04-07T04:32:01.862Z,104
2018-04-07T04:33:02.174Z,116
2018-04-07T04:34:02.445Z,124
2018-04-07T04:35:02.213Z,140
2018-04-07T04:36:02.026Z,152
2018-04-07T04:37:01.579Z,164
2018-04-07T04:38:02.266Z,180
2018-04-07T04:39:01.836Z,196
2018-04-07T04:40:03.282Z,208
2018-04-07T04:41:02.252Z,224
2018-04-07T04:42:02.295Z,240
2018-04-07T04:43:02.912Z,256
2018-04-07T04:44:02.922Z,276
2018-04-07T04:45:02.918Z,296
2018-04-07T04:46:03.422Z,312
2018-04-07T04:47:03.185Z,332
2018-04-07T04:48:03.196Z,352
2018-04-07T04:49:03.261Z,372
2018-04-07T04:50:03.021Z,396
2018-04-07T04:51:03.305Z,420
2018-04-07T04:52:03.317Z,440
2018-04-07T04:53:04.042Z,460
2018-04-07T04:54:03.365Z,484
2018-04-07T04:55:03.704Z,504
2018-04-07T04:56:03.484Z,528
2018-04-07T04:57:03.728Z,544
2018-04-07T04:58:03.689Z,572
2018-04-07T04:59:03.522Z,596
2018-04-07T05:00:08.702Z,624
2018-04-07T05:01:03.840Z,644
2018-04-07T05:02:03.578Z,672
2018-04-07T05:03:03.568Z,692
2018-04-07T05:04:03.853Z,716
2018-04-07T05:05:04.118Z,740
2018-04-07T05:06:03.865Z,764
2018-04-07T05:07:03.326Z,788
2018-04-07T05:08:04.157Z,804
2018-04-07T05:09:04.190Z,824
2018-04-07T05:10:04.161Z,840
2018-04-07T05:11:04.673Z,860
2018-04-07T05:12:05.124Z,872
2018-04-07T05:13:04.402Z,888
2018-04-07T05:14:05.385Z,920
2018-04-07T05:15:05.970Z,960
2018-04-07T05:16:04.898Z,1000
2018-04-07T05:17:05.751Z,1036
2018-04-07T05:18:05.289Z,1060
2018-04-07T05:19:06.232Z,1088
2018-04-07T05:20:06.699Z,1112
2018-04-07T05:21:05.382Z,1132
2018-04-07T05:22:05.538Z,1144
2018-04-07T05:23:07.214Z,1156
2018-04-07T05:24:06.836Z,1176
2018-04-07T05:25:07.445Z,1196
2018-04-07T05:26:07.385Z,1220
2018-04-07T05:27:07.149Z,1244
2018-04-07T05:28:07.592Z,1276
2018-04-07T05:29:06.914Z,1316
2018-04-07T05:30:07.134Z,1364
2018-04-07T05:31:07.378Z,1412
2018-04-07T05:32:06.847Z,1464
2018-04-07T05:33:06.393Z,1508
2018-04-07T05:34:06.430Z,1544
2018-04-07T05:35:06.838Z,1576
2018-04-07T05:36:07.185Z,1616
2018-04-07T05:37:06.542Z,1668
2018-04-07T05:38:07.158Z,1728
2018-04-07T05:39:06.783Z,1804
2018-04-07T05:40:07.255Z,1880
2018-04-07T05:41:06.430Z,1960
2018-04-07T05:42:06.404Z,2172
2018-04-07T05:43:06.621Z,3252
2018-04-07T05:44:07.375Z,4400
2018-04-07T05:45:06.680Z,4412
2018-04-07T05:46:06.676Z,4772
2018-04-07T05:47:06.445Z,5148
2018-04-07T05:48:06.983Z,5268
2018-04-07T05:49:06.571Z,5228
2018-04-07T05:50:07.381Z,5244
2018-04-07T05:51:07.232Z,5508
2018-04-07T05:52:07.146Z,5884
2018-04-07T05:53:07.727Z,5908
2018-04-07T05:54:07.210Z,5632
2018-04-07T05:55:07.234Z,5456
2018-04-07T05:56:07.857Z,5560
2018-04-07T05:57:08.136Z,5640
2018-04-07T05:58:07.850Z,5712
2018-04-07T05:59:08.030Z,5476
2018-04-07T06:00:21.315Z,5400
2018-04-07T06:01:08.354Z,5248
2018-04-07T06:02:08.750Z,5248
2018-04-07T06:03:08.567Z,5340
2018-04-07T06:04:09.672Z,5028
2018-04-07T06:05:09.315Z,5344
2018-04-07T06:06:08.771Z,5160
2018-04-07T06:07:09.534Z,5388
2018-04-07T06:08:09.400Z,5340
2018-04-07T06:09:09.836Z,5356
2018-04-07T06:10:10.050Z,5492
2018-04-07T06:11:10.120Z,5472
2018-04-07T06:12:09.750Z,5552
2018-04-07T06:13:09.944Z,5528
2018-04-07T06:14:10.404Z,5788
2018-04-07T06:15:09.972Z,5736
2018-04-07T06:16:09.941Z,5408
2018-04-07T06:17:10.238Z,5088
2018-04-07T06:18:10.448Z,4688
2018-04-07T06:19:10.642Z,4416
2018-04-07T06:20:10.406Z,4260
2018-04-07T06:21:10.527Z,4380
2018-04-07T06:22:10.972Z,4468
2018-04-07T06:23:11.254Z,4796
2018-04-07T06:24:11.000Z,4812
2018-04-07T06:25:11.384Z,4664
2018-04-07T06:26:11.142Z,4476
2018-04-07T06:27:11.353Z,4568
2018-04-07T06:28:11.194Z,4388
2018-04-07T06:29:10.884Z,4108
2018-04-07T06:30:11.723Z,4204
2018-04-07T06:31:12.692Z,4004
2018-04-07T06:32:12.275Z,3788
2018-04-07T06:33:12.275Z,3868
2018-04-07T06:34:12.130Z,3856
2018-04-07T06:35:12.352Z,4004
2018-04-07T06:36:12.813Z,4172
2018-04-07T06:37:12.284Z,4796
2018-04-07T06:38:12.747Z,5532
2018-04-07T06:39:12.751Z,6048
2018-04-07T06:40:12.897Z,5888
2018-04-07T06:41:13.040Z,6384
2018-04-07T06:42:13.166Z,6424
2018-04-07T06:43:13.454Z,6376
2018-04-07T06:44:13.899Z,6536
2018-04-07T06:45:14.311Z,6520
2018-04-07T06:46:14.381Z,6504
2018-04-07T06:47:14.244Z,6432
2018-04-07T06:48:14.132Z,6488
2018-04-07T06:49:14.698Z,6844
2018-04-07T06:50:14.466Z,7408
2018-04-07T06:51:15.708Z,7472
2018-04-07T06:52:15.408Z,6944
2018-04-07T06:53:15.497Z,6508
2018-04-07T06:54:15.691Z,6356
2018-04-07T06:55:15.931Z,6524
2018-04-07T06:56:16.157Z,6508
2018-04-07T06:57:16.799Z,6396
2018-04-07T06:58:16.308Z,6740
2018-04-07T06:59:16.614Z,7348
2018-04-07T07:00:16.654Z,8344
2018-04-07T07:01:16.913Z,9864
2018-04-07T07:02:17.612Z,11880
2018-04-07T07:03:17.003Z,14952
2018-04-07T07:04:17.647Z,17856
2018-04-07T07:05:17.260Z,19904
2018-04-07T07:06:17.838Z,20768
2018-04-07T07:07:17.689Z,19200
2018-04-07T07:08:18.237Z,19936
2018-04-07T07:09:17.742Z,20800
2018-04-07T07:10:19.693Z,24480
2018-04-07T07:11:18.466Z,27040
2018-04-07T07:12:19.005Z,30592
2018-04-07T07:13:18.894Z,32640
2018-04-07T07:14:19.814Z,35456
2018-04-07T07:15:19.014Z,37920
2018-04-07T07:16:19.362Z,37600
2018-04-07T07:17:20.128Z,39584
2018-04-07T07:18:19.583Z,39616
2018-04-07T07:19:19.836Z,35392
2018-04-07T07:20:19.974Z,35040
2018-04-07T07:21:19.638Z,38368
2018-04-07T07:22:20.332Z,39584
2018-04-07T07:23:19.760Z,38272
2018-04-07T07:24:19.826Z,38688
2018-04-07T07:25:20.076Z,38528
2018-04-07T07:26:20.718Z,35552
2018-04-07T07:27:20.389Z,32896
2018-04-07T07:28:20.287Z,27936
2018-04-07T07:29:20.189Z,22176
2018-04-07T07:30:20.844Z,17984
2018-04-07T07:31:20.238Z,15984
2018-04-07T07:32:21.885Z,15448
2018-04-07T07:33:21.321Z,14716
2018-04-07T07:34:22.149Z,11636
2018-04-07T07:35:22.413Z,9504
2018-04-07T07:36:22.661Z,8956
2018-04-07T07:37:22.042Z,8284
2018-04-07T07:38:22.215Z,8236
2018-04-07T07:39:22.925Z,8048
2018-04-07T07:40:23.164Z,7808
2018-04-07T07:41:22.948Z,7552
2018-04-07T07:42:23.207Z,7388
2018-04-07T07:43:23.782Z,7316
2018-04-07T07:44:22.829Z,7336
2018-04-07T07:45:22.786Z,7160
2018-04-07T07:46:23.613Z,7008
2018-04-07T07:47:23.679Z,7160
2018-04-07T07:48:23.485Z,7016
2018-04-07T07:49:23.088Z,6952
2018-04-07T07:50:24.264Z,6860
2018-04-07T07:51:23.729Z,6972
2018-04-07T07:52:23.566Z,6964
2018-04-07T07:53:23.476Z,6772
2018-04-07T07:54:24.612Z,6780
2018-04-07T07:55:24.004Z,6840
2018-04-07T07:56:24.852Z,6844
2018-04-07T07:57:23.682Z,6776
2018-04-07T07:58:24.196Z,6784
2018-04-07T07:59:23.750Z,6656
2018-04-07T08:00:24.229Z,6760
2018-04-07T08:01:24.194Z,6316
2018-04-07T08:02:24.751Z,6620
2018-04-07T08:03:24.557Z,6696
2018-04-07T08:04:24.383Z,6544
2018-04-07T08:05:24.320Z,6288
2018-04-07T08:06:24.373Z,6364
2018-04-07T08:07:24.398Z,5960
2018-04-07T08:08:25.429Z,6372
2018-04-07T08:09:25.165Z,6572
2018-04-07T08:10:25.886Z,6800
2018-04-07T08:11:25.386Z,6900
2018-04-07T08:12:26.665Z,6836
2018-04-07T08:13:25.614Z,7276
2018-04-07T08:14:26.651Z,8600
2018-04-07T08:15:26.155Z,11032
2018-04-07T08:16:26.062Z,11380
2018-04-07T08:17:26.556Z,10308
2018-04-07T08:18:26.904Z,9316
2018-04-07T08:19:26.900Z,9140
2018-04-07T08:20:26.505Z,8596
2018-04-07T08:21:26.502Z,8412
2018-04-07T08:22:26.505Z,7988
2018-04-07T08:23:27.518Z,7000
2018-04-07T08:24:27.279Z,6592
2018-04-07T08:25:27.044Z,6984
2018-04-07T08:26:27.066Z,7484
2018-04-07T08:27:26.968Z,7312
2018-04-07T08:28:27.481Z,7140
2018-04-07T08:29:27.175Z,6188
2018-04-07T08:30:27.334Z,5436
2018-04-07T08:31:27.034Z,6684
2018-04-07T08:32:27.337Z,7608
2018-04-07T08:33:27.081Z,7256
2018-04-07T08:34:27.881Z,6868
2018-04-07T08:35:27.710Z,6628
2018-04-07T08:36:27.567Z,7172
2018-04-07T08:37:27.820Z,7164
2018-04-07T08:38:28.048Z,6980
2018-04-07T08:39:29.155Z,6772
2018-04-07T08:40:29.549Z,6916
2018-04-07T08:41:29.026Z,7192
2018-04-07T08:42:30.571Z,7424
2018-04-07T08:43:29.416Z,7272
2018-04-07T08:44:29.952Z,7360
2018-04-07T08:45:30.051Z,7244
2018-04-07T08:46:29.785Z,7060
2018-04-07T08:47:31.017Z,6888
2018-04-07T08:48:30.246Z,6928
2018-04-07T08:49:29.850Z,6828
2018-04-07T08:50:29.862Z,6784
2018-04-07T08:51:29.961Z,6872
2018-04-07T08:52:30.301Z,6648
2018-04-07T08:53:30.051Z,6276
2018-04-07T08:54:29.700Z,5932
2018-04-07T08:55:30.297Z,5912
2018-04-07T08:56:30.074Z,5912
2018-04-07T08:57:30.670Z,6160
2018-04-07T08:58:30.424Z,6028
2018-04-07T08:59:30.899Z,6140
2018-04-07T09:00:31.250Z,5896
2018-04-07T09:01:30.363Z,6376
2018-04-07T09:02:31.163Z,6220
2018-04-07T09:03:30.989Z,6268
2018-04-07T09:04:31.187Z,6272
2018-04-07T09:05:31.588Z,6484
2018-04-07T09:06:32.808Z,7100
2018-04-07T09:07:32.024Z,6504
2018-04-07T09:08:32.698Z,7252
2018-04-07T09:09:32.242Z,7492
2018-04-07T09:10:33.109Z,7848
2018-04-07T09:11:32.594Z,7896
2018-04-07T09:12:32.630Z,7652
2018-04-07T09:13:32.757Z,7136
2018-04-07T09:14:32.827Z,6948
2018-04-07T09:15:32.957Z,7168
2018-04-07T09:16:32.162Z,7204
2018-04-07T09:17:32.245Z,7452
2018-04-07T09:18:32.264Z,7432
2018-04-07T09:19:32.834Z,7340
2018-04-07T09:20:32.304Z,7176
2018-04-07T09:21:33.409Z,7528
2018-04-07T09:22:32.416Z,7656
2018-04-07T09:23:33.192Z,7708
2018-04-07T09:24:33.173Z,7788
2018-04-07T09:25:33.728Z,8160
2018-04-07T09:26:33.214Z,8224
2018-04-07T09:27:32.774Z,8012
2018-04-07T09:28:33.027Z,7732
2018-04-07T09:29:34.116Z,7644
2018-04-07T09:30:32.998Z,7760
2018-04-07T09:31:33.919Z,7864
2018-04-07T09:32:33.494Z,7596
2018-04-07T09:33:33.776Z,7200
2018-04-07T09:34:33.261Z,6952
2018-04-07T09:35:33.556Z,6708
2018-04-07T09:36:33.983Z,6468
2018-04-07T09:37:34.497Z,6488
2018-04-07T09:38:34.505Z,6584
2018-04-07T09:39:34.948Z,6660
2018-04-07T09:40:35.437Z,6836
2018-04-07T09:41:35.660Z,6972
2018-04-07T09:42:36.987Z,7172
2018-04-07T09:43:36.521Z,7360
2018-04-07T09:44:37.224Z,7412
2018-04-07T09:45:36.595Z,7600
2018-04-07T09:46:36.899Z,7436
2018-04-07T09:47:36.787Z,7344
2018-04-07T09:48:37.860Z,7492
2018-04-07T09:49:37.420Z,7600
2018-04-07T09:50:38.447Z,7808
2018-04-07T09:51:38.139Z,7964
2018-04-07T09:52:38.346Z,7908
2018-04-07T09:53:38.484Z,7856
2018-04-07T09:54:39.059Z,7864
2018-04-07T09:55:38.500Z,7604
2018-04-07T09:56:38.483Z,7244
2018-04-07T09:57:38.533Z,7032
2018-04-07T09:58:37.705Z,7040
2018-04-07T09:59:37.729Z,6896
2018-04-07T10:00:38.276Z,6664
2018-04-07T10:01:38.749Z,6436
2018-04-07T10:02:38.138Z,6320
2018-04-07T10:03:38.246Z,6340
2018-04-07T10:04:38.730Z,6420
2018-04-07T10:05:38.428Z,6388
2018-04-07T10:06:38.741Z,6368
2018-04-07T10:07:38.823Z,6396
2018-04-07T10:08:39.248Z,6388
2018-04-07T10:09:39.275Z,6400
2018-04-07T10:10:39.152Z,6392
2018-04-07T10:11:38.656Z,6428
2018-04-07T10:12:39.225Z,6392
2018-04-07T10:13:39.531Z,6336
2018-04-07T10:14:39.547Z,6372
2018-04-07T10:15:39.961Z,6368
2018-04-07T10:16:40.160Z,6204
2018-04-07T10:17:40.577Z,6128
2018-04-07T10:18:40.349Z,6096
2018-04-07T10:19:40.794Z,6112
2018-04-07T10:20:41.292Z,6084
2018-04-07T10:21:41.711Z,6120
2018-04-07T10:22:41.646Z,6128
2018-04-07T10:23:42.172Z,6040
2018-04-07T10:24:42.545Z,5904
2018-04-07T10:25:41.986Z,5852
2018-04-07T10:26:42.652Z,5808
2018-04-07T10:27:42.712Z,5836
2018-04-07T10:28:42.837Z,5864
2018-04-07T10:29:42.896Z,5840
2018-04-07T10:30:43.296Z,5776
2018-04-07T10:31:43.059Z,5568
2018-04-07T10:32:43.227Z,5428
2018-04-07T10:33:43.507Z,5328
2018-04-07T10:34:43.929Z,5200
2018-04-07T10:35:44.040Z,5252
2018-04-07T10:36:44.702Z,5284
2018-04-07T10:37:44.741Z,5128
2018-04-07T10:38:44.786Z,5064
2018-04-07T10:39:45.221Z,4896
2018-04-07T10:40:45.197Z,4772
2018-04-07T10:41:44.677Z,4488
2018-04-07T10:42:45.654Z,4108
2018-04-07T10:43:46.439Z,3532
2018-04-07T10:44:44.932Z,3144
2018-04-07T10:45:47.239Z,2876
2018-04-07T10:46:46.695Z,2708
2018-04-07T10:47:47.300Z,2564
2018-04-07T10:48:45.795Z,2436
2018-04-07T10:49:45.952Z,2332
2018-04-07T10:50:46.243Z,2308
2018-04-07T10:51:46.684Z,2252
2018-04-07T10:52:47.332Z,2220
2018-04-07T10:53:47.465Z,2192
2018-04-07T10:54:47.201Z,2152
2018-04-07T10:55:47.620Z,2116
2018-04-07T10:56:47.724Z,2096
2018-04-07T10:57:47.325Z,2068
2018-04-07T10:58:48.687Z,2044
2018-04-07T10:59:48.041Z,2012
2018-04-07T11:00:47.810Z,1992
2018-04-07T11:01:47.967Z,2000
2018-04-07T11:02:48.147Z,2016
2018-04-07T11:03:48.140Z,2000
2018-04-07T11:04:48.567Z,1932
2018-04-07T11:05:48.219Z,1976
2018-04-07T11:06:48.252Z,1968
2018-04-07T11:07:48.674Z,1980
2018-04-07T11:08:48.673Z,1972
2018-04-07T11:09:48.478Z,1980
2018-04-07T11:10:48.715Z,1964
2018-04-07T11:11:48.666Z,1960
2018-04-07T11:12:49.562Z,1964
2018-04-07T11:13:48.660Z,1948
2018-04-07T11:14:48.826Z,1932
2018-04-07T11:15:49.095Z,1924
2018-04-07T11:16:49.967Z,1920
2018-04-07T11:17:49.363Z,1904
2018-04-07T11:18:50.283Z,1888
2018-04-07T11:19:50.457Z,1872
2018-04-07T11:20:50.320Z,1852
2018-04-07T11:21:49.736Z,1832
2018-04-07T11:22:50.916Z,1812
2018-04-07T11:23:50.570Z,1788
2018-04-07T11:24:50.626Z,1760
2018-04-07T11:25:50.670Z,1740
2018-04-07T11:26:50.772Z,1720
2018-04-07T11:27:50.556Z,1712
2018-04-07T11:28:50.723Z,1688
2018-04-07T11:29:50.747Z,1664
2018-04-07T11:30:50.640Z,1636
2018-04-07T11:31:51.220Z,1636
2018-04-07T11:32:51.293Z,1620
2018-04-07T11:33:50.883Z,1608
2018-04-07T11:34:51.552Z,1592
2018-04-07T11:35:51.984Z,1588
2018-04-07T11:36:52.191Z,1572
2018-04-07T11:37:52.362Z,1556
2018-04-07T11:38:53.249Z,1552
2018-04-07T11:39:53.583Z,1544
2018-04-07T11:40:52.511Z,1540
2018-04-07T11:41:53.277Z,1528
2018-04-07T11:42:52.861Z,1524
2018-04-07T11:43:53.264Z,1500
2018-04-07T11:44:53.420Z,1504
2018-04-07T11:45:53.837Z,1504
2018-04-07T11:46:53.717Z,1492
2018-04-07T11:47:54.298Z,1472
2018-04-07T11:48:54.075Z,1456
2018-04-07T11:49:54.528Z,1416
2018-04-07T11:50:54.721Z,1332
2018-04-07T11:51:54.190Z,1300
2018-04-07T11:52:54.610Z,1292
2018-04-07T11:53:55.257Z,1284
2018-04-07T11:54:55.030Z,1276
2018-04-07T11:55:55.504Z,1272
2018-04-07T11:56:56.028Z,1264
2018-04-07T11:57:56.004Z,1256
2018-04-07T11:58:55.962Z,1248
2018-04-07T11:59:56.375Z,1236
2018-04-07T12:00:56.238Z,1228
2018-04-07T12:01:57.081Z,1228
2018-04-07T12:02:56.595Z,1216
2018-04-07T12:03:56.426Z,1208
2018-04-07T12:04:56.653Z,1200
2018-04-07T12:05:56.606Z,1188
2018-04-07T12:06:57.124Z,1188
2018-04-07T12:07:57.188Z,1176
2018-04-07T12:08:57.153Z,1172
2018-04-07T12:09:57.288Z,1164
2018-04-07T12:10:57.663Z,1160
2018-04-07T12:11:57.329Z,1156
2018-04-07T12:12:57.666Z,1152
2018-04-07T12:13:57.071Z,1140
2018-04-07T12:14:57.377Z,1132
2018-04-07T12:15:57.690Z,1120
2018-04-07T12:16:57.727Z,1116
2018-04-07T12:17:57.200Z,1108
2018-04-07T12:18:58.343Z,1100
2018-04-07T12:19:57.860Z,1088
2018-04-07T12:20:57.924Z,1084
2018-04-07T12:21:58.068Z,1076
2018-04-07T12:22:58.413Z,1076
2018-04-07T12:23:58.888Z,1068
2018-04-07T12:24:58.431Z,1056
2018-04-07T12:25:59.082Z,1048
2018-04-07T12:26:59.122Z,1048
2018-04-07T12:27:59.452Z,1052
2018-04-07T12:28:58.922Z,1048
2018-04-07T12:29:58.922Z,1044
2018-04-07T12:31:00.153Z,1044
2018-04-07T12:31:59.302Z,1036
2018-04-07T12:32:59.665Z,1032
2018-04-07T12:34:00.639Z,1028
2018-04-07T12:35:00.298Z,1028
2018-04-07T12:36:00.370Z,1008
2018-04-07T12:37:00.356Z,988
2018-04-07T12:38:00.512Z,984
2018-04-07T12:39:00.174Z,988
2018-04-07T12:40:00.874Z,992
2018-04-07T12:41:01.406Z,988
2018-04-07T12:42:01.010Z,988
2018-04-07T12:43:01.169Z,984
2018-04-07T12:44:00.943Z,988
2018-04-07T12:45:01.619Z,992
2018-04-07T12:46:01.330Z,992
2018-04-07T12:47:01.920Z,992
2018-04-07T12:48:02.165Z,992
2018-04-07T12:49:01.691Z,988
2018-04-07T12:50:01.452Z,980
2018-04-07T12:51:02.279Z,972
2018-04-07T12:52:02.075Z,960
2018-04-07T12:53:01.902Z,956
2018-04-07T12:54:01.595Z,952
2018-04-07T12:55:02.275Z,944
2018-04-07T12:56:01.872Z,936
2018-04-07T12:57:02.163Z,940
2018-04-07T12:58:02.456Z,936
2018-04-07T12:59:02.087Z,936
2018-04-07T13:00:08.938Z,936
2018-04-07T13:01:02.585Z,936
2018-04-07T13:02:03.986Z,936
2018-04-07T13:03:02.736Z,932
2018-04-07T13:04:02.471Z,932
2018-04-07T13:05:02.896Z,932
2018-04-07T13:06:03.334Z,924
2018-04-07T13:07:03.869Z,924
2018-04-07T13:08:03.882Z,920
2018-04-07T13:09:04.031Z,916
2018-04-07T13:10:04.706Z,912
2018-04-07T13:11:04.518Z,908
2018-04-07T13:12:04.362Z,908
2018-04-07T13:13:05.040Z,904
2018-04-07T13:14:05.087Z,904
2018-04-07T13:15:05.186Z,904
2018-04-07T13:16:04.663Z,908
2018-04-07T13:17:05.110Z,900
2018-04-07T13:18:05.534Z,900
2018-04-07T13:19:06.196Z,896
2018-04-07T13:20:05.742Z,892
2018-04-07T13:21:06.470Z,892
2018-04-07T13:22:06.664Z,892
2018-04-07T13:23:07.368Z,884
2018-04-07T13:24:06.895Z,884
2018-04-07T13:25:07.569Z,884
2018-04-07T13:26:06.918Z,880
2018-04-07T13:27:07.652Z,880
2018-04-07T13:28:07.427Z,876
2018-04-07T13:29:07.448Z,876
2018-04-07T13:30:07.541Z,872
2018-04-07T13:31:07.852Z,872
2018-04-07T13:32:07.662Z,872
2018-04-07T13:33:07.075Z,868
2018-04-07T13:34:07.639Z,872
2018-04-07T13:35:07.132Z,872
2018-04-07T13:36:07.694Z,872
2018-04-07T13:37:07.450Z,864
2018-04-07T13:38:07.742Z,864
2018-04-07T13:39:08.473Z,860
2018-04-07T13:40:08.213Z,856
2018-04-07T13:41:08.101Z,856
2018-04-07T13:42:08.022Z,856
2018-04-07T13:43:08.503Z,852
2018-04-07T13:44:08.622Z,852
2018-04-07T13:45:08.931Z,852
2018-04-07T13:46:08.573Z,852
2018-04-07T13:47:09.182Z,848
2018-04-07T13:48:08.626Z,848
2018-04-07T13:49:08.839Z,844